createdAt,value
2022-07-26T00:00:12.417Z,98.66
2022-07-26T00:01:12.494Z,98.16
2022-07-26T00:02:18.033Z,98.66
2022-07-26T00:03:13.381Z,98.16
2022-07-26T00:04:12.368Z,98.16
2022-07-26T00:05:12.371Z,98.86
2022-07-26T00:06:12.350Z,98.36
2022-07-26T00:07:12.334Z,98.66
2022-07-26T00:08:12.325Z,98.86
2022-07-26T00:09:12.336Z,98.77
2022-07-26T00:10:12.314Z,98.57
2022-07-26T00:11:12.300Z,99.07
2022-07-26T00:12:12.286Z,98.86
2022-07-26T00:13:12.277Z,99.07
2022-07-26T00:14:12.272Z,98.97
2022-07-26T00:15:12.267Z,98.97
2022-07-26T00:16:12.306Z,98.97
2022-07-26T00:17:12.238Z,98.97
2022-07-26T00:18:12.382Z,99.16
2022-07-26T00:19:12.218Z,98.97
2022-07-26T00:20:12.201Z,99.07
2022-07-26T00:21:12.244Z,99.27
2022-07-26T00:22:12.185Z,98.86
2022-07-26T00:23:12.171Z,98.77
2022-07-26T00:24:12.168Z,99.07
2022-07-26T00:25:12.153Z,98.57
2022-07-26T00:26:12.142Z,98.36
2022-07-26T00:27:12.159Z,98.71
2022-07-26T00:28:12.116Z,98.97
2022-07-26T00:29:12.301Z,98.86
2022-07-26T00:30:12.105Z,98.97
2022-07-26T00:31:12.188Z,98.86
2022-07-26T00:32:12.081Z,99.07
2022-07-26T00:33:12.078Z,99.07
2022-07-26T00:34:12.058Z,99.57
2022-07-26T00:35:12.052Z,99.47
2022-07-26T00:36:12.037Z,99.57
2022-07-26T00:37:14.969Z,99.99
2022-07-26T00:38:13.038Z,99.57
2022-07-26T00:39:12.151Z,99.97
2022-07-26T00:40:12.002Z,99.92
2022-07-26T00:41:11.987Z,99.62
2022-07-26T00:42:11.975Z,99.47
2022-07-26T00:43:11.969Z,99.77
2022-07-26T00:44:21.012Z,99.97
2022-07-26T00:45:11.986Z,99.67
2022-07-26T00:46:19.650Z,99.99
2022-07-26T00:47:11.989Z,99.57
2022-07-26T00:48:11.964Z,99.57
2022-07-26T00:49:12.619Z,99.67
2022-07-26T00:50:11.944Z,98.97
2022-07-26T00:51:11.892Z,99.16
2022-07-26T00:52:11.867Z,99.07
2022-07-26T00:53:11.868Z,99.27
2022-07-26T00:54:11.858Z,98.97
2022-07-26T00:55:11.832Z,99.07
2022-07-26T00:56:11.860Z,99.27
2022-07-26T00:57:11.816Z,99.16
2022-07-26T00:58:11.807Z,99.21
2022-07-26T00:59:11.957Z,98.97
2022-07-26T01:00:11.786Z,99.07
2022-07-26T01:01:11.894Z,99.32
2022-07-26T01:02:11.785Z,99.11
2022-07-26T01:03:11.754Z,99.01
2022-07-26T01:04:11.951Z,99.52
2022-07-26T01:05:11.730Z,99.91
2022-07-26T01:06:11.722Z,99.62
2022-07-26T01:07:14.656Z,99.62
2022-07-26T01:08:11.694Z,99.62
2022-07-26T01:09:11.700Z,99.99
2022-07-26T01:10:11.681Z,99.71
2022-07-26T01:11:11.663Z,99.82
2022-07-26T01:12:11.664Z,99.71
2022-07-26T01:13:11.638Z,99.71
2022-07-26T01:14:11.793Z,99.82
2022-07-26T01:15:11.632Z,99.52
2022-07-26T01:16:11.690Z,99.82
2022-07-26T01:17:11.612Z,99.91
2022-07-26T01:18:11.611Z,99.87
2022-07-26T01:19:11.637Z,99.62
2022-07-26T01:20:11.563Z,99.41
2022-07-26T01:21:13.650Z,99.82
2022-07-26T01:22:14.621Z,99.71
2022-07-26T01:23:11.608Z,99.99
2022-07-26T01:24:20.692Z,99.71
2022-07-26T01:26:22.200Z,99.71
2022-07-26T01:27:22.104Z,99.99
2022-07-26T01:28:22.016Z,99.91
2022-07-26T01:29:22.684Z,99.77
2022-07-26T01:30:21.939Z,99.82
2022-07-26T01:31:22.139Z,99.99
2022-07-26T01:32:21.962Z,99.32
2022-07-26T01:33:21.916Z,99.82
2022-07-26T01:34:21.913Z,99.91
2022-07-26T01:35:21.879Z,99.71
2022-07-26T01:36:21.907Z,99.41
2022-07-26T01:37:21.879Z,99.52
2022-07-26T01:38:21.849Z,99.62
2022-07-26T01:39:21.926Z,99.21
2022-07-26T01:40:21.964Z,99.52
2022-07-26T01:41:37.369Z,99.32
2022-07-26T01:42:22.975Z,99.71
2022-07-26T01:43:21.803Z,99.52
2022-07-26T01:44:21.777Z,99.36
2022-07-26T01:45:21.767Z,99.82
2022-07-26T01:46:21.824Z,99.96
2022-07-26T01:47:21.955Z,99.99
2022-07-26T01:48:21.741Z,99.99
2022-07-26T01:49:21.804Z,99.96
2022-07-26T01:50:21.726Z,99.96
2022-07-26T01:51:21.731Z,99.76
2022-07-26T01:52:21.714Z,99.76
2022-07-26T01:53:21.677Z,99.96
2022-07-26T01:54:22.513Z,99.99
2022-07-26T01:55:21.669Z,99.99
2022-07-26T01:56:21.647Z,99.99
2022-07-26T01:57:21.651Z,99.99
2022-07-26T01:58:21.639Z,99.99
2022-07-26T01:59:21.620Z,99.99
2022-07-26T02:00:21.635Z,99.99
2022-07-26T02:01:39.178Z,99.99
2022-07-26T02:02:22.750Z,99.99
2022-07-26T02:03:21.672Z,99.99
2022-07-26T02:04:21.661Z,99.99
2022-07-26T02:05:21.545Z,99.99
2022-07-26T02:06:21.533Z,99.99
2022-07-26T02:07:21.556Z,99.99
2022-07-26T02:08:21.772Z,99.99
2022-07-26T02:09:21.508Z,99.99
2022-07-26T02:10:21.500Z,99.99
2022-07-26T02:11:21.503Z,99.99
2022-07-26T02:12:21.487Z,99.99
2022-07-26T02:13:21.475Z,99.99
2022-07-26T02:14:25.580Z,99.99
2022-07-26T02:15:22.433Z,99.99
2022-07-26T02:16:21.541Z,99.99
2022-07-26T02:17:21.417Z,99.99
2022-07-26T02:18:21.413Z,99.99
2022-07-26T02:19:21.401Z,99.99
2022-07-26T02:20:21.398Z,99.99
2022-07-26T02:21:21.382Z,99.99
2022-07-26T02:22:21.370Z,99.99
2022-07-26T02:23:21.370Z,99.99
2022-07-26T02:24:21.358Z,99.99
2022-07-26T02:25:21.338Z,99.99
2022-07-26T02:26:21.326Z,99.99
2022-07-26T02:27:21.309Z,99.99
2022-07-26T02:28:21.303Z,99.99
2022-07-26T02:29:21.300Z,99.99
2022-07-26T02:30:21.282Z,99.99
2022-07-26T02:31:21.375Z,99.99
2022-07-26T02:32:21.263Z,99.99
2022-07-26T02:33:21.258Z,99.99
2022-07-26T02:34:21.257Z,99.99
2022-07-26T02:35:21.228Z,99.99
2022-07-26T02:36:21.221Z,99.99
2022-07-26T02:37:21.226Z,99.99
2022-07-26T02:38:21.200Z,99.99
2022-07-26T02:39:21.198Z,99.99
2022-07-26T02:40:21.179Z,99.99
2022-07-26T02:41:21.162Z,99.99
2022-07-26T02:42:21.158Z,99.99
2022-07-26T02:43:21.149Z,99.99
2022-07-26T02:44:21.137Z,99.99
2022-07-26T02:45:21.137Z,99.99
2022-07-26T02:46:21.166Z,99.99
2022-07-26T02:47:21.192Z,99.99
2022-07-26T02:48:21.098Z,99.99
2022-07-26T02:49:21.173Z,99.99
2022-07-26T02:50:21.074Z,99.99
2022-07-26T02:51:21.078Z,99.99
2022-07-26T02:52:21.061Z,99.99
2022-07-26T02:53:21.040Z,99.60
2022-07-26T02:54:21.023Z,99.95
2022-07-26T02:55:28.650Z,99.95
2022-07-26T02:57:31.412Z,99.99
2022-07-26T02:58:32.345Z,99.85
2022-07-26T02:59:31.376Z,99.85
2022-07-26T03:00:31.314Z,99.95
2022-07-26T03:01:31.382Z,99.85
2022-07-26T03:02:31.397Z,99.85
2022-07-26T03:03:31.356Z,99.99
2022-07-26T03:04:32.325Z,99.45
2022-07-26T03:05:31.265Z,99.35
2022-07-26T03:06:31.340Z,99.45
2022-07-26T03:07:31.234Z,99.65
2022-07-26T03:08:31.209Z,99.15
2022-07-26T03:09:31.218Z,99.10
2022-07-26T03:10:31.212Z,99.15
2022-07-26T03:11:31.174Z,99.15
2022-07-26T03:12:31.183Z,99.10
2022-07-26T03:13:31.162Z,99.05
2022-07-26T03:14:31.141Z,99.05
2022-07-26T03:15:31.237Z,98.94
2022-07-26T03:16:31.241Z,99.10
2022-07-26T03:17:31.131Z,98.49
2022-07-26T03:18:31.106Z,99.19
2022-07-26T03:19:31.101Z,98.69
2022-07-26T03:20:31.086Z,98.49
2022-07-26T03:21:31.071Z,98.90
2022-07-26T03:22:31.079Z,98.69
2022-07-26T03:23:31.062Z,99.30
2022-07-26T03:24:31.037Z,99.19
2022-07-26T03:25:31.033Z,99.30
2022-07-26T03:26:31.020Z,98.99
2022-07-26T03:27:31.012Z,98.69
2022-07-26T03:28:31.013Z,98.79
2022-07-26T03:29:38.638Z,99.30
2022-07-26T03:30:31.051Z,98.39
2022-07-26T03:31:31.135Z,98.69
2022-07-26T03:32:31.011Z,98.49
2022-07-26T03:33:31.065Z,98.59
2022-07-26T03:34:30.941Z,98.59
2022-07-26T03:35:30.919Z,98.59
2022-07-26T03:36:31.915Z,98.54
2022-07-26T03:37:45.663Z,98.69
2022-07-26T03:38:31.896Z,98.69
2022-07-26T03:39:30.894Z,98.79
2022-07-26T03:40:30.874Z,98.59
2022-07-26T03:41:30.861Z,97.89
2022-07-26T03:42:30.854Z,98.39
2022-07-26T03:43:30.872Z,98.09
2022-07-26T03:44:31.833Z,97.99
2022-07-26T03:45:30.813Z,97.69
2022-07-26T03:46:30.853Z,97.58
2022-07-26T03:47:30.796Z,97.49
2022-07-26T03:48:30.870Z,97.89
2022-07-26T03:49:30.797Z,97.38
2022-07-26T03:50:30.772Z,97.69
2022-07-26T03:51:30.750Z,97.33
2022-07-26T03:52:30.742Z,97.03
2022-07-26T03:53:30.733Z,97.53
2022-07-26T03:54:30.719Z,97.33
2022-07-26T03:55:30.717Z,97.13
2022-07-26T03:56:30.714Z,97.64
2022-07-26T03:57:30.686Z,97.53
2022-07-26T03:58:30.686Z,97.24
2022-07-26T03:59:30.671Z,97.84
2022-07-26T04:00:30.669Z,97.44
2022-07-26T04:01:30.763Z,97.44
2022-07-26T04:02:30.714Z,97.53
2022-07-26T04:03:30.624Z,97.53
2022-07-26T04:04:30.616Z,97.33
2022-07-26T04:05:30.620Z,97.44
2022-07-26T04:06:30.604Z,97.74
2022-07-26T04:07:30.587Z,97.64
2022-07-26T04:08:30.587Z,97.74
2022-07-26T04:09:30.565Z,97.94
2022-07-26T04:10:30.567Z,97.79
2022-07-26T04:11:30.542Z,98.04
2022-07-26T04:12:30.526Z,97.59
2022-07-26T04:13:30.537Z,97.99
2022-07-26T04:14:30.519Z,97.89
2022-07-26T04:15:30.505Z,97.59
2022-07-26T04:16:30.541Z,97.69
2022-07-26T04:17:30.496Z,97.59
2022-07-26T04:18:30.470Z,97.89
2022-07-26T04:19:30.460Z,97.89
2022-07-26T04:20:30.457Z,97.59
2022-07-26T04:21:30.445Z,97.59
2022-07-26T04:22:30.427Z,97.69
2022-07-26T04:23:30.431Z,97.69
2022-07-26T04:24:30.413Z,97.79
2022-07-26T04:25:40.785Z,97.39
2022-07-26T04:26:31.402Z,97.49
2022-07-26T04:27:30.383Z,97.34
2022-07-26T04:28:30.378Z,96.98
2022-07-26T04:29:30.361Z,97.29
2022-07-26T04:30:30.396Z,97.24
2022-07-26T04:31:36.407Z,97.04
2022-07-26T04:32:31.344Z,96.34
2022-07-26T04:33:30.322Z,97.04
2022-07-26T04:34:30.300Z,96.50
2022-07-26T04:35:30.289Z,95.94
2022-07-26T04:36:30.283Z,96.30
2022-07-26T04:37:30.275Z,95.89
2022-07-26T04:38:30.299Z,96.09
2022-07-26T04:39:30.249Z,95.99
2022-07-26T04:40:30.241Z,95.34
2022-07-26T04:41:30.225Z,95.34
2022-07-26T04:42:30.219Z,95.34
2022-07-26T04:43:30.211Z,95.04
2022-07-26T04:44:30.220Z,94.44
2022-07-26T04:45:30.187Z,95.04
2022-07-26T04:46:30.230Z,95.04
2022-07-26T04:47:30.169Z,94.89
2022-07-26T04:48:30.231Z,95.44
2022-07-26T04:49:30.158Z,94.64
2022-07-26T04:50:30.145Z,94.94
2022-07-26T04:51:30.121Z,94.13
2022-07-26T04:52:30.109Z,93.43
2022-07-26T04:53:30.101Z,93.89
2022-07-26T04:54:30.093Z,93.59
2022-07-26T04:55:30.093Z,92.89
2022-07-26T04:56:30.079Z,92.99
2022-07-26T04:57:30.055Z,92.99
2022-07-26T04:58:30.052Z,92.69
2022-07-26T04:59:32.736Z,92.94
2022-07-26T05:00:30.043Z,92.44
2022-07-26T05:01:30.059Z,90.64
2022-07-26T05:02:30.087Z,90.84
2022-07-26T05:03:29.995Z,90.94
2022-07-26T05:04:29.986Z,90.53
2022-07-26T05:05:29.982Z,90.19
2022-07-26T05:06:29.975Z,88.83
2022-07-26T05:07:29.953Z,88.63
2022-07-26T05:08:29.961Z,89.59
2022-07-26T05:09:29.941Z,88.39
2022-07-26T05:10:29.927Z,87.88
2022-07-26T05:11:29.925Z,88.04
2022-07-26T05:12:29.905Z,88.24
2022-07-26T05:13:31.002Z,88.34
2022-07-26T05:14:29.887Z,88.64
2022-07-26T05:15:35.233Z,86.44
2022-07-26T05:16:30.929Z,87.04
2022-07-26T05:17:29.856Z,86.84
2022-07-26T05:18:31.712Z,86.64
2022-07-26T05:19:30.824Z,87.00
2022-07-26T05:20:29.840Z,87.10
2022-07-26T05:21:29.803Z,87.00
2022-07-26T05:22:29.804Z,86.96
2022-07-26T05:23:29.789Z,86.76
2022-07-26T05:24:29.783Z,86.46
2022-07-26T05:25:29.769Z,85.35
2022-07-26T05:26:29.765Z,85.96
2022-07-26T05:27:29.749Z,85.25
2022-07-26T05:28:29.738Z,85.82
2022-07-26T05:29:29.748Z,86.41
2022-07-26T05:30:29.840Z,85.31
2022-07-26T05:31:29.737Z,82.61
2022-07-26T05:32:29.701Z,83.37
2022-07-26T05:33:29.689Z,82.87
2022-07-26T05:34:29.695Z,83.77
2022-07-26T05:35:29.657Z,82.31
2022-07-26T05:36:29.648Z,82.97
2022-07-26T05:37:29.641Z,82.67
2022-07-26T05:38:29.638Z,81.53
2022-07-26T05:39:29.622Z,81.49
2022-07-26T05:40:29.622Z,81.49
2022-07-26T05:41:29.604Z,80.35
2022-07-26T05:42:29.591Z,79.46
2022-07-26T05:43:40.942Z,80.09
2022-07-26T05:44:30.575Z,79.89
2022-07-26T05:45:29.622Z,80.15
2022-07-26T05:46:29.591Z,80.29
2022-07-26T05:47:29.534Z,79.89
2022-07-26T05:48:29.570Z,80.19
2022-07-26T05:49:39.727Z,80.29
2022-07-26T05:50:30.544Z,78.49
2022-07-26T05:51:29.489Z,80.03
2022-07-26T05:52:29.486Z,80.59
2022-07-26T05:53:29.474Z,80.55
2022-07-26T05:54:29.463Z,79.46
2022-07-26T05:55:29.456Z,79.65
2022-07-26T05:56:29.465Z,79.46
2022-07-26T05:57:29.436Z,80.35
2022-07-26T05:58:29.424Z,78.49
2022-07-26T05:59:29.412Z,79.29
2022-07-26T06:00:29.398Z,80.39
2022-07-26T06:01:29.409Z,80.89
2022-07-26T06:02:29.451Z,79.93
2022-07-26T06:03:29.366Z,80.53
2022-07-26T06:04:29.391Z,81.23
2022-07-26T06:05:29.349Z,78.53
2022-07-26T06:06:29.349Z,79.83
2022-07-26T06:07:29.337Z,79.36
2022-07-26T06:08:29.345Z,79.67
2022-07-26T06:09:29.309Z,78.97
2022-07-26T06:10:29.293Z,80.00
2022-07-26T06:11:29.291Z,79.91
2022-07-26T06:12:29.272Z,81.47
2022-07-26T06:13:29.266Z,79.57
2022-07-26T06:14:29.264Z,79.43
2022-07-26T06:15:29.248Z,79.53
2022-07-26T06:16:29.237Z,78.99
2022-07-26T06:17:29.263Z,77.73
2022-07-26T06:18:29.245Z,79.43
2022-07-26T06:19:29.199Z,78.93
2022-07-26T06:20:29.192Z,78.27
2022-07-26T06:21:29.180Z,79.93
2022-07-26T06:22:29.162Z,80.07
2022-07-26T06:23:33.540Z,78.34
2022-07-26T06:24:30.152Z,79.80
2022-07-26T06:25:29.132Z,80.61
2022-07-26T06:26:29.133Z,80.47
2022-07-26T06:27:29.114Z,80.83
2022-07-26T06:28:29.117Z,77.23
2022-07-26T06:29:32.409Z,77.53
2022-07-26T06:30:29.083Z,77.93
2022-07-26T06:31:29.144Z,79.47
2022-07-26T06:32:29.078Z,79.77
2022-07-26T06:33:29.055Z,79.73
2022-07-26T06:34:29.041Z,79.93
2022-07-26T06:35:29.046Z,80.23
2022-07-26T06:36:30.935Z,76.83
2022-07-26T06:37:29.016Z,75.93
2022-07-26T06:38:29.022Z,77.86
2022-07-26T06:39:28.988Z,78.23
2022-07-26T06:40:28.982Z,78.03
2022-07-26T06:41:28.991Z,77.03
2022-07-26T06:42:28.966Z,77.97
2022-07-26T06:43:28.946Z,77.86
2022-07-26T06:44:28.956Z,78.27
2022-07-26T06:45:28.933Z,77.67
2022-07-26T06:46:28.983Z,77.06
2022-07-26T06:47:28.918Z,77.03
2022-07-26T06:48:29.038Z,77.40
2022-07-26T06:49:29.054Z,78.17
2022-07-26T06:50:28.933Z,77.86
2022-07-26T06:51:28.865Z,78.67
2022-07-26T06:52:28.875Z,78.36
2022-07-26T06:53:28.852Z,78.13
2022-07-26T06:54:28.835Z,77.53
2022-07-26T06:55:28.822Z,78.59
2022-07-26T06:56:28.822Z,77.95
2022-07-26T06:57:28.811Z,77.09
2022-07-26T06:58:28.795Z,76.89
2022-07-26T06:59:28.780Z,75.35
2022-07-26T07:00:28.769Z,75.35
2022-07-26T07:01:59.644Z,76.29
2022-07-26T07:02:29.783Z,75.56
2022-07-26T07:03:28.749Z,75.56
2022-07-26T07:04:28.807Z,75.42
2022-07-26T07:05:31.210Z,74.12
2022-07-26T07:06:28.718Z,75.12
2022-07-26T07:07:28.708Z,74.42
2022-07-26T07:08:28.724Z,75.52
2022-07-26T07:09:28.678Z,74.79
2022-07-26T07:10:28.673Z,74.82
2022-07-26T07:11:28.658Z,74.12
2022-07-26T07:12:28.648Z,76.32
2022-07-26T07:13:28.656Z,75.16
2022-07-26T07:14:28.643Z,76.35
2022-07-26T07:15:28.646Z,75.42
2022-07-26T07:16:28.630Z,76.52
2022-07-26T07:17:28.596Z,76.18
2022-07-26T07:18:28.589Z,74.19
2022-07-26T07:19:28.585Z,74.19
2022-07-26T07:20:37.578Z,77.08
2022-07-26T07:21:28.574Z,74.55
2022-07-26T07:22:28.564Z,73.75
2022-07-26T07:23:28.592Z,73.65
2022-07-26T07:24:28.577Z,74.62
2022-07-26T07:25:30.975Z,73.02
2022-07-26T07:26:28.607Z,72.42
2022-07-26T07:27:28.549Z,72.72
2022-07-26T07:28:28.576Z,73.52
2022-07-26T07:29:28.472Z,73.22
2022-07-26T07:30:28.489Z,73.98
2022-07-26T07:31:30.149Z,71.72
2022-07-26T07:32:28.536Z,73.22
2022-07-26T07:33:36.692Z,72.81
2022-07-26T07:34:29.431Z,72.45
2022-07-26T07:35:32.031Z,72.72
2022-07-26T07:36:36.036Z,73.42
2022-07-26T07:37:52.215Z,75.37
